createdAt,value
2023-08-05T00:01:46.020Z,23.60
2023-08-05T00:04:19.321Z,23.57
2023-08-05T00:06:52.043Z,23.54
2023-08-05T00:09:24.554Z,23.43
2023-08-05T00:11:56.914Z,23.40
2023-08-05T00:14:29.307Z,23.30
2023-08-05T00:17:02.164Z,23.31
2023-08-05T00:19:35.236Z,23.14
2023-08-05T00:22:07.949Z,23.10
2023-08-05T00:24:40.927Z,22.97
2023-08-05T00:27:13.308Z,23.03
2023-08-05T00:29:46.624Z,22.95
2023-08-05T00:32:19.046Z,22.96
2023-08-05T00:34:53.118Z,22.90
2023-08-05T00:37:25.462Z,22.85
2023-08-05T00:39:57.898Z,22.89
2023-08-05T00:42:30.331Z,22.84
2023-08-05T00:45:02.968Z,22.67
2023-08-05T00:47:37.028Z,22.67
2023-08-05T00:50:13.491Z,22.67
2023-08-05T00:52:45.982Z,22.55
2023-08-05T00:55:18.486Z,22.34
2023-08-05T00:57:51.367Z,22.31
2023-08-05T01:00:24.265Z,22.29
2023-08-05T01:02:56.641Z,22.15
2023-08-05T01:05:30.383Z,22.13
2023-08-05T01:08:05.220Z,22.13
2023-08-05T01:10:37.591Z,22.17
2023-08-05T01:13:10.308Z,22.13
2023-08-05T01:15:42.838Z,22.21
2023-08-05T01:18:18.029Z,22.23
2023-08-05T01:20:53.430Z,22.11
2023-08-05T01:23:36.481Z,22.11
2023-08-05T01:26:11.424Z,22.00
2023-08-05T01:28:46.122Z,21.83
2023-08-05T01:31:19.328Z,21.86
2023-08-05T01:33:52.550Z,21.85
2023-08-05T01:36:25.031Z,21.88
2023-08-05T01:38:57.355Z,21.76
2023-08-05T01:41:30.810Z,21.68
2023-08-05T01:44:03.183Z,21.68
2023-08-05T01:46:35.548Z,21.71
2023-08-05T01:49:07.930Z,21.73
2023-08-05T01:51:40.334Z,21.69
2023-08-05T01:54:12.698Z,21.53
2023-08-05T01:56:45.765Z,21.53
2023-08-05T01:59:18.131Z,21.54
2023-08-05T02:01:50.583Z,21.56
2023-08-05T02:04:22.925Z,21.53
2023-08-05T02:06:55.453Z,21.45
2023-08-05T02:09:27.878Z,21.33
2023-08-05T02:12:00.945Z,21.18
2023-08-05T02:14:33.972Z,21.12
2023-08-05T02:17:06.863Z,21.12
2023-08-05T02:19:39.441Z,21.15
2023-08-05T02:22:11.783Z,21.14
2023-08-05T02:24:44.129Z,21.12
2023-08-05T02:27:19.056Z,21.10
2023-08-05T02:29:51.381Z,21.01
2023-08-05T02:32:23.729Z,21.15
2023-08-05T02:34:57.273Z,20.98
2023-08-05T02:37:29.709Z,20.95
2023-08-05T02:40:03.980Z,21.00
2023-08-05T02:42:37.067Z,20.83
2023-08-05T02:45:09.772Z,20.91
2023-08-05T02:47:42.188Z,20.95
2023-08-05T02:50:14.541Z,20.81
2023-08-05T02:52:46.970Z,20.63
2023-08-05T02:55:19.328Z,20.70
2023-08-05T02:57:52.734Z,20.59
2023-08-05T03:00:25.184Z,20.63
2023-08-05T03:02:57.569Z,20.68
2023-08-05T03:05:30.019Z,20.74
2023-08-05T03:08:03.184Z,20.70
2023-08-05T03:10:35.510Z,20.59
2023-08-05T03:13:08.492Z,20.53
2023-08-05T03:15:40.892Z,20.49
2023-08-05T03:18:21.179Z,20.51
2023-08-05T03:20:53.683Z,20.47
2023-08-05T03:23:26.608Z,20.41
2023-08-05T03:26:00.934Z,20.46
2023-08-05T03:28:34.039Z,20.51
2023-08-05T03:31:06.617Z,20.49
2023-08-05T03:33:39.077Z,20.55
2023-08-05T03:36:13.413Z,20.48
2023-08-05T03:38:46.001Z,20.30
2023-08-05T03:41:18.402Z,20.31
2023-08-05T03:43:51.418Z,20.30
2023-08-05T03:46:23.805Z,20.30
2023-08-05T03:48:56.551Z,20.07
2023-08-05T03:51:28.972Z,20.13
2023-08-05T03:54:02.193Z,20.02
2023-08-05T03:56:34.711Z,20.02
2023-08-05T03:59:09.113Z,20.02
2023-08-05T04:01:41.673Z,20.03
2023-08-05T04:04:14.141Z,19.93
2023-08-05T04:06:46.558Z,20.00
2023-08-05T04:09:21.945Z,19.92
2023-08-05T04:11:54.560Z,19.86
2023-08-05T04:14:27.568Z,19.93
2023-08-05T04:17:02.450Z,19.90
2023-08-05T04:19:34.944Z,19.92
2023-08-05T04:22:07.522Z,19.92
2023-08-05T04:24:42.345Z,20.02
2023-08-05T04:27:14.947Z,20.02
2023-08-05T04:29:48.055Z,20.10
2023-08-05T04:32:21.170Z,20.07
2023-08-05T04:34:53.592Z,20.03
2023-08-05T04:37:27.256Z,20.03
2023-08-05T04:39:59.574Z,20.08
2023-08-05T04:42:31.879Z,20.11
2023-08-05T04:45:06.164Z,20.01
2023-08-05T04:47:38.523Z,20.09
2023-08-05T04:50:10.952Z,20.13
2023-08-05T04:52:44.788Z,20.20
2023-08-05T04:55:17.167Z,20.28
2023-08-05T04:57:53.052Z,20.35
2023-08-05T05:00:26.468Z,20.37
2023-08-05T05:02:58.874Z,20.50
2023-08-05T05:05:33.494Z,20.52
2023-08-05T05:08:05.833Z,20.58
2023-08-05T05:10:38.208Z,20.58
2023-08-05T05:13:10.563Z,20.72
2023-08-05T05:15:43.579Z,20.83
2023-08-05T05:18:15.925Z,20.97
2023-08-05T05:20:50.330Z,21.09
2023-08-05T05:23:22.756Z,21.22
2023-08-05T05:25:55.116Z,21.29
2023-08-05T05:28:27.434Z,21.46
2023-08-05T05:31:03.273Z,21.59
2023-08-05T05:33:35.850Z,21.78
2023-08-05T05:36:08.160Z,21.92
2023-08-05T05:38:40.507Z,22.08
2023-08-05T05:41:12.883Z,22.23
2023-08-05T05:43:45.260Z,22.44
2023-08-05T05:46:20.128Z,22.50
2023-08-05T05:48:52.525Z,22.65
2023-08-05T05:51:24.883Z,22.77
2023-08-05T05:53:58.102Z,22.91
2023-08-05T05:56:31.302Z,23.00
2023-08-05T05:59:03.687Z,23.14
2023-08-05T06:01:36.702Z,23.35
2023-08-05T06:04:09.960Z,23.47
2023-08-05T06:06:42.443Z,23.67
2023-08-05T06:09:15.536Z,23.78
2023-08-05T06:11:48.105Z,23.91
2023-08-05T06:14:21.414Z,23.89
2023-08-05T06:16:54.812Z,24.08
2023-08-05T06:19:27.498Z,24.17
2023-08-05T06:21:59.889Z,24.17
2023-08-05T06:24:32.226Z,24.37
2023-08-05T06:27:05.314Z,24.50
2023-08-05T06:29:37.677Z,24.66
2023-08-05T06:32:10.740Z,24.88
2023-08-05T06:34:43.070Z,25.04
2023-08-05T06:37:15.380Z,25.08
2023-08-05T06:39:47.748Z,25.18
2023-08-05T06:42:23.833Z,25.44
2023-08-05T06:44:56.182Z,25.53
2023-08-05T06:47:31.715Z,25.66
2023-08-05T06:50:07.069Z,25.73
2023-08-05T06:52:39.406Z,25.82
2023-08-05T06:55:12.596Z,25.91
2023-08-05T06:57:45.656Z,26.08
2023-08-05T07:00:18.256Z,26.16
2023-08-05T07:02:51.586Z,26.20
2023-08-05T07:05:24.206Z,26.29
2023-08-05T07:07:56.613Z,26.51
2023-08-05T07:10:28.991Z,26.46
2023-08-05T07:13:06.142Z,26.68
2023-08-05T07:15:38.508Z,26.79
2023-08-05T07:18:11.599Z,26.75
2023-08-05T07:20:43.961Z,26.87
2023-08-05T07:23:16.304Z,26.90
2023-08-05T07:25:48.869Z,26.86
2023-08-05T07:28:21.242Z,27.03
2023-08-05T07:31:02.877Z,27.22
2023-08-05T07:33:35.892Z,27.38
2023-08-05T07:36:09.949Z,27.53
2023-08-05T07:38:45.036Z,27.65
2023-08-05T07:41:19.351Z,27.91
2023-08-05T07:43:51.840Z,28.18
2023-08-05T07:46:26.107Z,28.05
2023-08-05T07:49:01.106Z,28.16
2023-08-05T07:51:33.446Z,28.28
2023-08-05T07:54:05.883Z,28.38
2023-08-05T07:56:39.780Z,28.56
2023-08-05T07:59:13.441Z,28.60
2023-08-05T08:01:46.404Z,28.86
2023-08-05T08:04:19.480Z,28.78
2023-08-05T08:06:52.579Z,29.00
2023-08-05T08:09:24.900Z,29.08
2023-08-05T08:11:57.244Z,29.22
2023-08-05T08:14:29.604Z,29.32
2023-08-05T08:17:01.953Z,29.34
2023-08-05T08:19:34.979Z,29.43
2023-08-05T08:22:07.331Z,29.43
2023-08-05T08:24:39.653Z,29.58
2023-08-05T08:27:11.948Z,29.50
2023-08-05T08:29:44.304Z,29.67
2023-08-05T08:32:16.665Z,29.64
2023-08-05T08:34:49.674Z,29.85
2023-08-05T08:37:22.126Z,29.95
2023-08-05T08:39:54.453Z,30.22
2023-08-05T08:42:27.539Z,30.32
2023-08-05T08:45:01.693Z,30.56
2023-08-05T08:47:35.909Z,30.66
2023-08-05T08:50:09.955Z,30.71
2023-08-05T08:52:45.879Z,30.76
2023-08-05T08:55:20.493Z,30.85
2023-08-05T08:57:52.880Z,30.78
2023-08-05T09:00:27.072Z,31.28
2023-08-05T09:03:01.014Z,31.54
2023-08-05T09:05:41.165Z,31.27
2023-08-05T09:08:14.060Z,31.24
2023-08-05T09:10:46.405Z,31.39
2023-08-05T09:13:20.100Z,31.28
2023-08-05T09:15:55.575Z,31.40
2023-08-05T09:18:28.023Z,31.77
2023-08-05T09:21:02.324Z,32.03
2023-08-05T09:23:45.240Z,31.90
2023-08-05T09:26:27.584Z,31.99
2023-08-05T09:29:01.095Z,32.11
2023-08-05T09:31:33.494Z,32.13
2023-08-05T09:34:05.906Z,32.52
2023-08-05T09:36:41.211Z,32.85
2023-08-05T09:39:16.631Z,33.03
2023-08-05T09:41:52.292Z,33.33
2023-08-05T09:44:24.780Z,33.77
2023-08-05T09:47:03.213Z,34.21
2023-08-05T09:49:38.199Z,34.46
2023-08-05T09:52:12.504Z,34.73
2023-08-05T09:54:51.384Z,34.45
2023-08-05T09:57:26.286Z,33.84
2023-08-05T10:00:01.406Z,33.47
2023-08-05T10:02:41.828Z,33.54
2023-08-05T10:05:14.858Z,33.12
2023-08-05T10:07:48.091Z,33.24
2023-08-05T10:10:21.472Z,33.19
2023-08-05T10:13:03.519Z,33.28
2023-08-05T10:15:39.693Z,33.05
2023-08-05T10:18:14.933Z,32.79
2023-08-05T10:20:50.882Z,33.12
2023-08-05T10:23:25.925Z,33.15
2023-08-05T10:26:00.475Z,32.84
2023-08-05T10:28:41.506Z,32.81
2023-08-05T10:31:29.060Z,33.02
2023-08-05T10:34:12.236Z,33.01
2023-08-05T10:36:45.960Z,32.88
2023-08-05T10:39:43.891Z,32.38
2023-08-05T10:42:36.675Z,32.63
2023-08-05T10:45:10.131Z,32.97
2023-08-05T10:47:48.743Z,33.29
2023-08-05T10:50:21.171Z,33.51
2023-08-05T10:52:54.141Z,33.56
2023-08-05T10:55:27.346Z,33.65
2023-08-05T10:57:59.778Z,33.48
2023-08-05T11:00:39.560Z,32.96
2023-08-05T11:03:32.222Z,32.74
2023-08-05T11:06:05.948Z,32.53
2023-08-05T11:08:40.227Z,32.40
2023-08-05T11:11:14.401Z,32.78
2023-08-05T11:13:49.152Z,32.89
2023-08-05T11:16:21.562Z,32.64
2023-08-05T11:18:57.442Z,32.84
2023-08-05T11:21:29.824Z,32.49
2023-08-05T11:24:02.185Z,32.81
2023-08-05T11:26:35.889Z,33.29
2023-08-05T11:29:08.422Z,33.39
2023-08-05T11:31:50.653Z,33.23
2023-08-05T11:34:25.128Z,33.26
2023-08-05T11:36:57.737Z,33.42
2023-08-05T11:39:30.088Z,33.32
2023-08-05T11:42:03.537Z,33.16
2023-08-05T11:44:35.901Z,33.35
2023-08-05T11:47:09.921Z,33.83
2023-08-05T11:49:51.791Z,34.01
2023-08-05T11:52:24.140Z,34.06
2023-08-05T11:54:58.176Z,34.00
2023-08-05T11:57:32.894Z,34.10
2023-08-05T12:00:06.999Z,34.14
2023-08-05T12:02:39.384Z,33.78
2023-08-05T12:05:12.554Z,33.20
2023-08-05T12:07:45.114Z,33.46
2023-08-05T12:10:19.031Z,33.55
2023-08-05T12:12:52.160Z,33.60
2023-08-05T12:15:28.931Z,33.49
2023-08-05T12:18:03.519Z,33.29
2023-08-05T12:20:37.728Z,33.18
2023-08-05T12:23:10.066Z,33.37
2023-08-05T12:25:42.606Z,33.00
2023-08-05T12:28:15.611Z,33.06
2023-08-05T12:30:47.926Z,32.74
2023-08-05T12:33:20.337Z,33.04
2023-08-05T12:35:53.957Z,33.25
2023-08-05T12:38:26.280Z,33.41
2023-08-05T12:40:58.591Z,33.26
2023-08-05T12:43:31.550Z,33.47
2023-08-05T12:46:03.922Z,33.62
2023-08-05T12:48:36.285Z,33.37
2023-08-05T12:51:08.617Z,32.95
2023-08-05T12:53:42.063Z,32.99
2023-08-05T12:56:15.046Z,32.49
2023-08-05T12:58:48.123Z,32.85
2023-08-05T13:01:20.491Z,32.87
2023-08-05T13:03:52.873Z,32.62
2023-08-05T13:06:25.359Z,32.69
2023-08-05T13:08:57.734Z,32.75
2023-08-05T13:11:30.129Z,32.90
2023-08-05T13:14:03.171Z,32.46
2023-08-05T13:16:35.566Z,32.10
2023-08-05T13:19:08.433Z,32.21
2023-08-05T13:21:40.822Z,31.90
2023-08-05T13:24:13.210Z,31.94
2023-08-05T13:26:45.513Z,31.93
2023-08-05T13:29:18.530Z,32.15
2023-08-05T13:31:51.425Z,32.13
2023-08-05T13:34:23.921Z,31.76
2023-08-05T13:36:56.300Z,31.82
2023-08-05T13:39:28.624Z,31.43
2023-08-05T13:42:02.090Z,31.11
2023-08-05T13:44:36.407Z,30.90
2023-08-05T13:47:08.880Z,30.89
2023-08-05T13:49:41.198Z,30.98
2023-08-05T13:52:13.523Z,31.13
2023-08-05T13:54:45.815Z,31.30
2023-08-05T13:57:18.161Z,31.46
2023-08-05T13:59:51.163Z,31.50
2023-08-05T15:10:09.245Z,31.94
2023-08-05T15:12:42.272Z,31.86
2023-08-05T15:15:14.678Z,31.90
2023-08-05T15:17:47.199Z,31.84
2023-08-05T15:20:19.553Z,31.83
2023-08-05T15:22:51.983Z,31.80
2023-08-05T15:25:24.342Z,31.72
2023-08-05T15:27:57.334Z,31.65
2023-08-05T15:30:35.401Z,31.58
2023-08-05T15:33:07.766Z,31.53
2023-08-05T15:35:40.161Z,31.53
2023-08-05T15:38:12.552Z,31.43
2023-08-05T15:40:44.857Z,31.42
2023-08-05T15:43:18.868Z,31.31
2023-08-05T15:45:55.407Z,31.15
2023-08-05T15:48:27.857Z,31.10
2023-08-05T15:51:04.177Z,31.03
2023-08-05T15:53:36.496Z,30.93
2023-08-05T15:56:10.412Z,30.79
2023-08-05T15:58:44.177Z,30.80
2023-08-05T16:01:16.591Z,30.74
2023-08-05T16:03:48.975Z,30.75
2023-08-05T16:06:21.341Z,30.71
2023-08-05T16:08:53.648Z,30.71
2023-08-05T16:11:26.518Z,30.64
2023-08-05T16:13:59.556Z,30.60
2023-08-05T16:16:31.907Z,30.54
2023-08-05T16:19:04.346Z,30.48
2023-08-05T16:21:37.174Z,30.46
2023-08-05T16:24:09.585Z,30.49
2023-08-05T16:26:42.805Z,30.55
2023-08-05T16:29:15.884Z,30.57
2023-08-05T16:31:48.274Z,30.55
2023-08-05T16:34:20.605Z,30.54
2023-08-05T16:36:52.935Z,30.55
2023-08-05T16:39:25.261Z,30.50
2023-08-05T16:41:57.964Z,30.43
2023-08-05T16:44:31.272Z,30.35
2023-08-05T16:47:04.973Z,30.35
2023-08-05T16:49:38.850Z,30.34
2023-08-05T16:52:11.231Z,30.30
2023-08-05T16:54:45.491Z,30.25
2023-08-05T16:57:17.848Z,30.19
2023-08-05T16:59:51.000Z,30.15
2023-08-05T17:02:23.372Z,30.12
2023-08-05T17:04:56.286Z,30.06
2023-08-05T17:07:28.843Z,29.95
2023-08-05T17:10:01.872Z,29.91
2023-08-05T17:12:34.244Z,29.80
2023-08-05T17:15:08.830Z,29.71
2023-08-05T17:17:41.238Z,29.67
2023-08-05T17:20:13.526Z,29.65
2023-08-05T17:22:45.809Z,29.57
2023-08-05T17:25:18.165Z,29.55
2023-08-05T17:27:50.689Z,29.52
2023-08-05T17:30:23.865Z,29.47
2023-08-05T17:32:56.254Z,29.42
2023-08-05T17:35:29.674Z,29.37
2023-08-05T17:38:03.324Z,29.28
2023-08-05T17:40:35.808Z,29.26
2023-08-05T17:43:08.205Z,29.20
2023-08-05T17:45:41.248Z,29.16
2023-08-05T17:48:13.596Z,29.11
2023-08-05T17:50:45.934Z,29.07
2023-08-05T17:53:25.127Z,29.03
2023-08-05T17:55:58.211Z,28.93
2023-08-05T17:58:30.541Z,28.81
2023-08-05T18:01:03.938Z,28.80
2023-08-05T18:03:36.412Z,28.76
2023-08-05T18:06:20.342Z,28.68
2023-08-05T18:08:54.019Z,28.60
2023-08-05T18:11:26.334Z,28.47
2023-08-05T18:13:58.968Z,28.41
2023-08-05T18:16:32.064Z,28.40
2023-08-05T18:19:05.117Z,28.35
2023-08-05T18:21:37.869Z,28.36
2023-08-05T18:24:10.332Z,28.21
2023-08-05T18:26:42.736Z,28.10
2023-08-05T18:29:17.364Z,28.17
2023-08-05T18:31:50.761Z,28.19
2023-08-05T18:34:24.715Z,28.21
2023-08-05T18:36:57.110Z,28.13
2023-08-05T18:39:32.152Z,28.08
2023-08-05T18:42:04.966Z,28.05
2023-08-05T18:44:37.443Z,28.04
2023-08-05T18:47:10.456Z,28.03
2023-08-05T18:49:42.930Z,28.03
2023-08-05T18:52:18.176Z,28.00
2023-08-05T18:54:50.589Z,27.95
2023-08-05T18:57:22.983Z,27.48
2023-08-05T18:59:55.372Z,26.95
2023-08-05T19:02:28.787Z,26.67
2023-08-05T19:05:01.915Z,26.63
2023-08-05T19:07:34.272Z,26.58
2023-08-05T19:10:07.061Z,26.55
2023-08-05T19:12:39.380Z,26.56
2023-08-05T19:15:11.769Z,26.17
2023-08-05T19:17:46.977Z,25.86
2023-08-05T19:20:19.408Z,25.33
2023-08-05T19:22:51.806Z,25.38
2023-08-05T19:25:24.167Z,25.41
2023-08-05T19:27:56.532Z,25.42
2023-08-05T19:30:28.860Z,25.35
2023-08-05T19:33:01.972Z,25.29
2023-08-05T19:35:34.401Z,25.13
2023-08-05T19:38:06.722Z,25.02
2023-08-05T19:40:39.091Z,25.02
2023-08-05T19:43:11.455Z,24.94
2023-08-05T19:45:46.068Z,24.98
2023-08-05T19:48:19.159Z,24.90
2023-08-05T19:51:07.148Z,24.82
2023-08-05T19:53:46.494Z,24.76
2023-08-05T19:56:18.984Z,24.78
2023-08-05T19:58:51.316Z,24.61
2023-08-05T20:01:23.717Z,24.23
2023-08-05T20:03:56.799Z,24.07
2023-08-05T20:06:29.192Z,23.93
2023-08-05T20:09:02.275Z,23.90
2023-08-05T20:11:34.631Z,23.91
2023-08-05T20:14:07.012Z,23.85
2023-08-05T20:16:39.433Z,23.77
2023-08-05T20:19:12.486Z,23.49
2023-08-05T20:21:44.903Z,23.27
2023-08-05T20:24:19.406Z,23.14
2023-08-05T20:26:52.137Z,23.12
2023-08-05T20:29:24.929Z,22.82
2023-08-05T20:31:57.298Z,22.45
2023-08-05T20:34:30.405Z,22.06
2023-08-05T20:37:02.894Z,22.08
2023-08-05T20:39:35.431Z,21.93
2023-08-05T20:42:07.738Z,21.82
2023-08-05T20:44:40.052Z,21.60
2023-08-05T20:47:13.054Z,21.40
2023-08-05T20:49:46.114Z,21.27
2023-08-05T20:52:18.758Z,21.17
2023-08-05T20:54:51.721Z,21.23
2023-08-05T20:57:24.080Z,21.02
2023-08-05T20:59:56.413Z,20.90
2023-08-05T21:02:30.128Z,20.90
2023-08-05T21:05:03.752Z,20.89
2023-08-05T21:07:36.098Z,20.78
2023-08-05T21:10:09.163Z,20.65
2023-08-05T21:12:41.662Z,20.61
2023-08-05T21:15:14.159Z,20.79
2023-08-05T21:17:46.493Z,20.91
2023-08-05T21:20:21.790Z,21.15
2023-08-05T21:22:54.557Z,21.15
2023-08-05T21:25:28.045Z,21.11
2023-08-05T21:28:00.384Z,21.25
2023-08-05T21:30:55.281Z,21.28
2023-08-05T21:33:28.325Z,21.02
2023-08-05T21:36:01.706Z,20.97
2023-08-05T21:38:34.085Z,20.92
2023-08-05T21:41:06.440Z,20.93
2023-08-05T21:43:39.829Z,20.78
2023-08-05T21:46:12.498Z,20.76
2023-08-05T21:48:44.896Z,20.49
2023-08-05T21:51:17.998Z,20.15
2023-08-05T21:53:50.350Z,19.93
2023-08-05T21:56:23.753Z,19.99
2023-08-05T21:58:56.168Z,19.71
2023-08-05T22:01:28.694Z,19.03
2023-08-05T22:04:02.202Z,18.37
2023-08-05T22:06:35.260Z,18.15
2023-08-05T22:09:07.706Z,18.13
2023-08-05T22:11:40.031Z,18.02
2023-08-05T22:14:12.444Z,18.14
2023-08-05T22:16:44.776Z,18.08
2023-08-05T22:19:17.110Z,18.10
2023-08-05T22:21:51.864Z,18.21
2023-08-05T22:24:34.395Z,18.20
2023-08-05T22:27:12.186Z,18.31
2023-08-05T22:29:44.646Z,18.36
2023-08-05T22:32:17.061Z,18.32
2023-08-05T22:34:52.344Z,18.30
2023-08-05T22:37:25.644Z,18.48
2023-08-05T22:39:58.930Z,18.61
2023-08-05T22:42:31.674Z,18.65
2023-08-05T22:45:04.796Z,18.72
2023-08-05T22:47:37.242Z,18.74
2023-08-05T22:50:10.105Z,18.72
2023-08-05T22:52:43.104Z,18.75
2023-08-05T22:55:15.601Z,18.88
2023-08-05T22:57:47.962Z,19.05
2023-08-05T23:00:20.285Z,19.07
2023-08-05T23:02:52.903Z,19.02
2023-08-05T23:05:25.642Z,18.90
2023-08-05T23:07:59.039Z,18.91
2023-08-05T23:10:32.168Z,18.88
2023-08-05T23:13:04.560Z,18.85
2023-08-05T23:15:37.012Z,18.83
2023-08-05T23:18:09.986Z,18.75
2023-08-05T23:20:42.443Z,18.75
2023-08-05T23:23:15.747Z,18.85
2023-08-05T23:25:48.183Z,18.85
2023-08-05T23:28:20.740Z,18.75
2023-08-05T23:30:53.119Z,18.74
2023-08-05T23:33:25.501Z,18.72
2023-08-05T23:35:58.224Z,18.78
2023-08-05T23:38:31.277Z,18.85
2023-08-05T23:41:03.967Z,18.94
2023-08-05T23:43:36.317Z,18.94
2023-08-05T23:46:08.616Z,18.88
2023-08-05T23:48:40.956Z,18.97
2023-08-05T23:51:13.634Z,18.95
2023-08-05T23:53:46.744Z,18.96
2023-08-05T23:56:19.268Z,18.91
2023-08-05T23:58:51.648Z,18.76
